Time;durP1;ratioP1;P1;durP2;ratioP2;P2;SDS_P1;SDS_P2;PMS_P1;PMS_P2;Temp;Humidity;BMP_temperature;BMP_pressure;BME280_temperature;BME280_humidity;BME280_pressure;Samples;Min_cycle;Max_cycle;Signal;HPM_P1;HPM_P2
2023/03/08 00:00:59;;;;;;;22.35;14.40;;;13.10;1.00;;;;;;4955514;29;20398;-63
2023/03/08 00:03:25;;;;;;;21.90;15.23;;;13.10;1.00;;;;;;4955676;29;20030;-63
2023/03/08 00:05:51;;;;;;;20.38;14.27;;;13.10;1.00;;;;;;4955107;29;20506;-63
2023/03/08 00:08:17;;;;;;;22.70;15.00;;;13.10;1.00;;;;;;4922270;29;20035;-63
2023/03/08 00:10:43;;;;;;;23.42;15.50;;;13.10;1.00;;;;;;4955474;29;20114;-64
2023/03/08 00:13:09;;;;;;;24.05;15.48;;;13.00;1.00;;;;;;4955356;29;20158;-63
2023/03/08 00:15:38;;;;;;;24.52;15.05;;;13.00;1.00;;;;;;4955517;29;20038;-63
2023/03/08 00:18:05;;;;;;;22.05;14.38;;;12.90;1.00;;;;;;4955203;29;20110;-63
2023/03/08 00:20:31;;;;;;;21.20;14.48;;;12.90;1.00;;;;;;4955132;29;20131;-63
2023/03/08 00:22:57;;;;;;;20.95;14.57;;;12.90;1.00;;;;;;4955533;29;20063;-64
2023/03/08 00:25:22;;;;;;;22.65;15.10;;;12.90;1.00;;;;;;4937910;29;20051;-65
2023/03/08 00:27:48;;;;;;;25.02;16.10;;;12.90;1.00;;;;;;4953338;29;20019;-65
2023/03/08 00:30:14;;;;;;;32.67;16.75;;;12.80;1.00;;;;;;4954758;29;20046;-65
2023/03/08 00:32:40;;;;;;;23.48;15.13;;;12.80;1.00;;;;;;4955077;29;20361;-65
2023/03/08 00:35:06;;;;;;;22.42;15.98;;;12.80;1.00;;;;;;4955083;29;20031;-65
2023/03/08 00:37:32;;;;;;;26.25;15.90;;;12.80;1.00;;;;;;4954861;29;20031;-64
2023/03/08 00:39:57;;;;;;;24.30;16.08;;;12.80;1.00;;;;;;4955009;29;20068;-64
2023/03/08 00:42:23;;;;;;;28.75;15.93;;;12.80;1.00;;;;;;4955155;29;20067;-64
2023/03/08 00:44:49;;;;;;;33.35;15.52;;;12.70;1.00;;;;;;4954778;29;20034;-64
2023/03/08 00:47:16;;;;;;;24.40;16.70;;;12.70;1.00;;;;;;4954887;29;20035;-65
2023/03/08 00:49:42;;;;;;;24.48;16.88;;;12.70;1.00;;;;;;4954713;29;20027;-64
2023/03/08 00:52:08;;;;;;;21.95;16.27;;;12.70;1.00;;;;;;4955245;29;20122;-65
2023/03/08 00:54:34;;;;;;;25.55;16.33;;;12.70;1.00;;;;;;4954789;29;20030;-65
2023/03/08 00:57:00;;;;;;;27.98;17.20;;;12.70;1.00;;;;;;4954966;29;20027;-64
2023/03/08 00:59:25;;;;;;;26.15;16.52;;;12.70;1.00;;;;;;4954668;29;20082;-64
2023/03/08 01:01:51;;;;;;;25.00;16.73;;;12.70;1.00;;;;;;4954702;29;20019;-65
2023/03/08 01:04:17;;;;;;;23.48;16.02;;;12.70;1.00;;;;;;4955721;28;20051;-64
2023/03/08 01:06:42;;;;;;;26.45;16.95;;;12.70;1.00;;;;;;4958819;29;20359;-64
2023/03/08 01:09:09;;;;;;;25.55;16.35;;;12.70;1.00;;;;;;4957849;29;20027;-63
2023/03/08 01:11:36;;;;;;;27.65;17.27;;;12.70;1.00;;;;;;4957643;29;20065;-64
2023/03/08 01:14:03;;;;;;;28.38;17.15;;;12.70;1.00;;;;;;4957861;29;20156;-64
2023/03/08 01:16:31;;;;;;;24.40;16.42;;;12.60;1.00;;;;;;4958543;29;20062;-64
2023/03/08 01:18:57;;;;;;;25.92;16.85;;;12.60;1.00;;;;;;4958252;29;20061;-64
2023/03/08 01:21:24;;;;;;;24.92;16.63;;;12.60;1.00;;;;;;4958218;29;20082;-64
2023/03/08 01:23:50;;;;;;;25.50;17.30;;;12.60;1.00;;;;;;4958379;29;20059;-64
2023/03/08 01:26:21;;;;;;;24.85;16.40;;;12.50;1.00;;;;;;4958356;29;20034;-65
2023/03/08 01:28:48;;;;;;;26.67;17.55;;;12.50;1.00;;;;;;4958231;29;20031;-65
2023/03/08 01:31:19;;;;;;;23.77;17.23;;;12.50;1.00;;;;;;4958500;29;20043;-64
2023/03/08 01:33:46;;;;;;;26.05;17.40;;;12.50;1.00;;;;;;4958083;29;20058;-65
2023/03/08 01:36:14;;;;;;;23.77;16.48;;;12.40;1.00;;;;;;4958017;29;20037;-64
2023/03/08 01:38:40;;;;;;;25.13;17.23;;;12.30;1.00;;;;;;4958373;29;20031;-64
2023/03/08 01:41:07;;;;;;;24.75;16.80;;;12.40;1.00;;;;;;4958203;29;20389;-64
2023/03/08 01:43:36;;;;;;;22.80;16.27;;;12.40;1.00;;;;;;4958035;29;20039;-64
2023/03/08 01:46:23;;;;;;;27.42;16.17;;;12.30;1.00;;;;;;4957682;29;20033;-65
2023/03/08 01:48:54;;;;;;;27.05;16.63;;;12.30;1.00;;;;;;4958180;29;20031;-64
2023/03/08 01:51:38;;;;;;;22.73;15.65;;;12.30;1.00;;;;;;4957790;29;20043;-64
2023/03/08 01:54:09;;;;;;;25.38;16.50;;;12.20;1.00;;;;;;4957858;29;20430;-64
2023/03/08 01:56:37;;;;;;;25.08;16.83;;;12.20;1.00;;;;;;4957662;29;20023;-64
2023/03/08 01:59:03;;;;;;;23.23;16.60;;;12.20;1.00;;;;;;4957890;29;20441;-64
2023/03/08 02:01:30;;;;;;;24.42;16.58;;;12.20;1.00;;;;;;4957614;29;20055;-64
2023/03/08 02:03:55;;;;;;;23.38;16.35;;;12.20;1.00;;;;;;4957728;29;20027;-62
2023/03/08 02:06:46;;;;;;;23.70;15.95;;;12.20;1.00;;;;;;4957706;29;20461;-64
2023/03/08 02:09:12;;;;;;;26.85;17.73;;;12.20;1.00;;;;;;4957279;29;20429;-64
2023/03/08 02:11:40;;;;;;;27.10;16.48;;;12.20;1.00;;;;;;4956889;29;20042;-64
2023/03/08 02:14:06;;;;;;;28.83;16.63;;;12.20;1.00;;;;;;4956741;29;20023;-64
2023/03/08 02:16:32;;;;;;;27.75;16.73;;;12.20;1.00;;;;;;4956178;28;20046;-64
2023/03/08 02:19:11;;;;;;;28.80;16.23;;;12.20;1.00;;;;;;4956351;29;20399;-64
2023/03/08 02:21:37;;;;;;;25.42;16.02;;;12.20;1.00;;;;;;4956097;29;20036;-64
2023/03/08 02:24:16;;;;;;;30.92;16.85;;;12.10;1.00;;;;;;4955873;29;20043;-64
2023/03/08 02:26:42;;;;;;;21.67;15.45;;;12.10;1.00;;;;;;4956063;29;20039;-64
2023/03/08 02:29:08;;;;;;;22.13;16.15;;;12.10;1.00;;;;;;4956099;29;20031;-64
2023/03/08 02:31:34;;;;;;;24.88;16.42;;;12.00;1.00;;;;;;4956055;29;20049;-64
2023/03/08 02:33:59;;;;;;;22.77;16.52;;;12.10;1.00;;;;;;4954578;29;20046;-64
2023/03/08 02:36:25;;;;;;;26.17;16.98;;;12.00;1.00;;;;;;4930171;29;20035;-64
2023/03/08 02:38:51;;;;;;;27.30;16.50;;;12.00;1.00;;;;;;4956326;29;20728;-64
2023/03/08 02:41:16;;;;;;;24.92;16.42;;;12.00;1.00;;;;;;4956350;29;20035;-64
2023/03/08 02:43:42;;;;;;;25.58;17.35;;;12.00;1.00;;;;;;4956056;29;20036;-64
2023/03/08 02:46:13;;;;;;;25.70;16.45;;;12.00;1.00;;;;;;4956122;29;20039;-64
2023/03/08 02:48:39;;;;;;;25.85;16.17;;;12.10;1.00;;;;;;4935583;29;20039;-64
2023/03/08 02:51:05;;;;;;;22.95;16.77;;;12.00;1.00;;;;;;4955449;29;20051;-64
2023/03/08 02:53:30;;;;;;;31.15;17.15;;;12.00;1.00;;;;;;4955927;29;20373;-64
2023/03/08 02:55:56;;;;;;;27.48;16.85;;;12.00;1.00;;;;;;4937830;29;20047;-64
2023/03/08 02:58:22;;;;;;;23.40;16.70;;;12.00;1.00;;;;;;4953577;29;20059;-64
2023/03/08 03:00:47;;;;;;;20.75;15.20;;;12.00;1.00;;;;;;4954848;29;20019;-64
2023/03/08 03:06:42;;;;;;;23.45;15.75;;;11.90;1.00;;;;;;4943118;29;20110;-65
2023/03/08 03:09:08;;;;;;;24.73;16.15;;;11.90;1.00;;;;;;4937598;29;20433;-64
2023/03/08 03:11:34;;;;;;;26.05;17.38;;;11.90;1.00;;;;;;4954980;29;20039;-65
2023/03/08 03:17:35;;;;;;;22.67;16.45;;;11.90;1.00;;;;;;4955151;29;20089;-64
2023/03/08 03:20:05;;;;;;;26.80;16.80;;;11.80;1.00;;;;;;4955278;29;20031;-64
2023/03/08 03:22:31;;;;;;;26.75;16.85;;;11.80;1.00;;;;;;4955492;29;20616;-64
2023/03/08 03:24:57;;;;;;;24.23;16.10;;;11.80;1.00;;;;;;4955503;29;20086;-64
2023/03/08 03:27:23;;;;;;;23.27;15.68;;;11.80;1.00;;;;;;4954666;28;20117;-63
2023/03/08 03:29:48;;;;;;;23.05;16.17;;;11.80;1.00;;;;;;4955661;29;20114;-64
2023/03/08 03:32:14;;;;;;;21.98;15.98;;;11.70;1.00;;;;;;4955637;29;20038;-64
2023/03/08 03:38:14;;;;;;;22.02;16.50;;;11.70;1.00;;;;;;4955148;29;20034;-64
2023/03/08 03:40:40;;;;;;;26.58;16.00;;;11.70;1.00;;;;;;4939045;29;20035;-63
2023/03/08 03:43:06;;;;;;;26.08;16.92;;;11.60;1.00;;;;;;4955988;29;20027;-64
2023/03/08 03:45:31;;;;;;;24.25;15.15;;;11.60;1.00;;;;;;4955918;29;20055;-64
2023/03/08 03:47:57;;;;;;;23.90;15.48;;;11.60;1.00;;;;;;4955821;29;20051;-63
2023/03/08 03:50:23;;;;;;;24.42;15.48;;;11.60;1.00;;;;;;4955975;29;20035;-64
2023/03/08 03:52:48;;;;;;;24.80;17.10;;;11.60;1.00;;;;;;4955758;29;20389;-64
2023/03/08 03:55:32;;;;;;;22.95;14.35;;;11.60;1.00;;;;;;4955642;29;20019;-64
2023/03/08 03:57:58;;;;;;;22.73;16.17;;;11.60;1.00;;;;;;4955584;29;20027;-64
2023/03/08 04:00:24;;;;;;;20.40;14.68;;;11.60;1.00;;;;;;4955800;29;20038;-64
2023/03/08 04:06:33;;;;;;;21.15;16.20;;;11.50;1.00;;;;;;4939905;29;20094;-64
2023/03/08 04:09:02;;;;;;;21.38;14.52;;;11.40;1.00;;;;;;4942440;29;20058;-65
2023/03/08 04:11:32;;;;;;;21.70;15.82;;;11.50;1.00;;;;;;4955571;29;20039;-64
2023/03/08 04:13:58;;;;;;;21.98;16.90;;;11.50;1.00;;;;;;4955213;29;20015;-64
2023/03/08 04:16:26;;;;;;;23.70;15.43;;;11.50;1.00;;;;;;4955331;29;20034;-64
2023/03/08 04:18:54;;;;;;;22.70;16.23;;;11.50;1.00;;;;;;4954883;29;20090;-64
2023/03/08 04:21:20;;;;;;;22.73;16.02;;;11.50;1.00;;;;;;4955279;29;20110;-64
2023/03/08 04:23:46;;;;;;;20.88;14.52;;;11.50;1.00;;;;;;4955234;29;20027;-64
2023/03/08 04:26:12;;;;;;;24.50;15.57;;;11.40;1.00;;;;;;4952898;29;20126;-65
2023/03/08 04:28:38;;;;;;;22.20;15.13;;;11.40;1.00;;;;;;4948365;29;20027;-64
2023/03/08 04:31:17;;;;;;;18.63;14.98;;;11.40;1.00;;;;;;4955269;29;20050;-64
2023/03/08 04:33:44;;;;;;;23.02;15.88;;;11.40;1.00;;;;;;4954998;29;20539;-64
2023/03/08 04:36:10;;;;;;;26.02;16.35;;;11.40;1.00;;;;;;4955065;29;20031;-64
2023/03/08 04:38:36;;;;;;;24.50;15.80;;;11.40;1.00;;;;;;4954961;28;20417;-64
2023/03/08 04:41:20;;;;;;;23.77;16.38;;;11.40;1.00;;;;;;4954935;29;20146;-64
2023/03/08 04:43:54;;;;;;;19.25;14.88;;;11.40;1.00;;;;;;4955212;29;20477;-64
2023/03/08 04:49:42;;;;;;;22.42;15.18;;;11.30;1.00;;;;;;4954790;29;20393;-65
2023/03/08 04:52:07;;;;;;;24.70;14.70;;;11.30;1.00;;;;;;4954799;29;20031;-65
2023/03/08 04:54:33;;;;;;;25.52;15.40;;;11.30;1.00;;;;;;4954777;29;20131;-65
2023/03/08 04:56:59;;;;;;;27.83;16.05;;;11.30;1.00;;;;;;4954966;29;20031;-64
2023/03/08 04:59:30;;;;;;;19.08;13.95;;;11.30;1.00;;;;;;4954684;29;20027;-65
2023/03/08 05:01:56;;;;;;;22.10;14.20;;;11.30;1.00;;;;;;4954746;29;20031;-64
2023/03/08 05:04:22;;;;;;;21.50;14.27;;;11.30;1.00;;;;;;4954697;29;20054;-65
2023/03/08 05:06:48;;;;;;;20.10;13.70;;;11.30;1.00;;;;;;4937142;29;20058;-65
2023/03/08 05:09:26;;;;;;;21.55;13.40;;;11.30;1.00;;;;;;4954860;29;20401;-65
2023/03/08 05:11:51;;;;;;;17.60;12.80;;;11.20;1.00;;;;;;4954467;29;20489;-64
2023/03/08 05:14:17;;;;;;;22.23;13.07;;;11.30;1.00;;;;;;4954786;29;20031;-64
2023/03/08 05:16:42;;;;;;;20.92;13.50;;;11.30;1.00;;;;;;4954288;29;20039;-64
2023/03/08 05:19:08;;;;;;;26.08;14.02;;;11.30;1.00;;;;;;4954718;29;20038;-65
2023/03/08 05:21:34;;;;;;;20.08;13.90;;;11.20;1.00;;;;;;4954808;29;20102;-64
2023/03/08 05:24:00;;;;;;;20.42;13.20;;;11.20;1.00;;;;;;4954432;29;20031;-64
2023/03/08 05:26:25;;;;;;;22.27;14.77;;;11.30;1.00;;;;;;4954475;29;20047;-65
2023/03/08 05:28:51;;;;;;;21.08;13.13;;;11.20;1.00;;;;;;4954430;29;20098;-65
2023/03/08 05:31:19;;;;;;;21.08;13.63;;;11.20;1.00;;;;;;4954636;29;20039;-65
2023/03/08 05:33:49;;;;;;;22.25;13.73;;;11.20;1.00;;;;;;4937311;29;20114;-65
2023/03/08 05:36:16;;;;;;;22.70;14.60;;;11.20;1.00;;;;;;4954318;29;20023;-66
2023/03/08 05:38:42;;;;;;;25.55;15.00;;;11.30;1.00;;;;;;4954873;29;20031;-65
2023/03/08 05:41:12;;;;;;;22.08;12.70;;;11.30;1.00;;;;;;4954322;29;20054;-65
2023/03/08 05:43:38;;;;;;;21.65;13.18;;;11.30;1.00;;;;;;4954063;29;20031;-65
2023/03/08 05:46:06;;;;;;;20.98;13.60;;;11.30;1.00;;;;;;4951713;29;20511;-66
2023/03/08 05:48:34;;;;;;;20.73;13.57;;;11.30;1.00;;;;;;4953394;29;20529;-65
2023/03/08 05:51:05;;;;;;;21.02;13.98;;;11.30;1.00;;;;;;4955587;28;20063;-65
2023/03/08 05:53:31;;;;;;;18.60;13.15;;;11.30;1.00;;;;;;4956189;29;20015;-66
2023/03/08 05:56:08;;;;;;;22.65;13.18;;;11.30;1.00;;;;;;4958012;29;20074;-65
2023/03/08 05:58:34;;;;;;;16.00;12.45;;;11.30;1.00;;;;;;4957997;29;20097;-65
2023/03/08 06:01:08;;;;;;;22.02;13.73;;;11.40;1.00;;;;;;4957886;29;20069;-65
2023/03/08 06:03:55;;;;;;;21.60;13.35;;;11.40;1.00;;;;;;4957481;29;20404;-65
2023/03/08 06:06:22;;;;;;;19.63;13.38;;;11.40;1.00;;;;;;4957747;29;20061;-65
2023/03/08 06:08:48;;;;;;;17.50;13.50;;;11.40;1.00;;;;;;4957500;29;20023;-65
2023/03/08 06:11:14;;;;;;;20.65;13.00;;;11.40;1.00;;;;;;4940173;29;20508;-65
2023/03/08 06:13:40;;;;;;;23.27;13.43;;;11.40;1.00;;;;;;4957517;29;20031;-65
2023/03/08 06:16:06;;;;;;;18.17;13.38;;;11.40;1.00;;;;;;4957648;29;20066;-66
2023/03/08 06:18:34;;;;;;;21.67;14.02;;;11.40;1.00;;;;;;4940215;29;20050;-65
2023/03/08 06:21:05;;;;;;;21.98;13.32;;;11.40;1.00;;;;;;4957591;29;20122;-65
2023/03/08 06:23:33;;;;;;;23.63;13.48;;;11.40;1.00;;;;;;4957378;29;20049;-65
2023/03/08 06:26:01;;;;;;;23.83;14.43;;;11.50;1.00;;;;;;4957402;29;20035;-65
2023/03/08 06:28:29;;;;;;;19.27;12.98;;;11.50;1.00;;;;;;4957170;29;20026;-65
2023/03/08 06:30:56;;;;;;;28.10;13.98;;;11.40;1.00;;;;;;4957060;29;20043;-65
2023/03/08 06:33:24;;;;;;;23.52;14.48;;;11.40;1.00;;;;;;4939956;29;20027;-65
2023/03/08 06:36:00;;;;;;;24.63;15.02;;;11.40;1.00;;;;;;4939766;29;20389;-65
2023/03/08 06:38:28;;;;;;;24.27;15.35;;;11.40;1.00;;;;;;4944511;29;20544;-65
2023/03/08 06:40:54;;;;;;;26.63;15.02;;;11.40;1.00;;;;;;4957295;29;20031;-65
2023/03/08 06:43:20;;;;;;;21.77;15.27;;;11.40;1.00;;;;;;4939720;29;20032;-65
2023/03/08 06:45:46;;;;;;;22.40;15.77;;;11.40;1.00;;;;;;4956652;29;20449;-65
2023/03/08 06:48:12;;;;;;;28.17;16.23;;;11.40;1.00;;;;;;4939522;29;20041;-65
2023/03/08 06:50:38;;;;;;;27.67;16.05;;;11.40;1.00;;;;;;4956769;29;20078;-65
2023/03/08 06:53:04;;;;;;;22.58;16.52;;;11.40;1.00;;;;;;4939476;29;20023;-65
2023/03/08 06:55:30;;;;;;;23.45;15.02;;;11.40;1.00;;;;;;4956670;29;20482;-65
2023/03/08 06:57:55;;;;;;;23.80;15.75;;;11.40;1.00;;;;;;4956588;29;20062;-65
2023/03/08 07:00:22;;;;;;;28.67;15.85;;;11.40;1.00;;;;;;4948667;29;20031;-65
2023/03/08 07:02:48;;;;;;;21.90;14.57;;;11.40;1.00;;;;;;4933272;29;20429;-65
2023/03/08 07:05:17;;;;;;;28.02;15.45;;;11.40;1.00;;;;;;4956321;29;20114;-65
2023/03/08 07:07:42;;;;;;;21.95;15.50;;;11.50;1.00;;;;;;4956398;29;20035;-65
2023/03/08 07:10:10;;;;;;;23.38;14.70;;;11.50;1.00;;;;;;4939554;29;20042;-65
2023/03/08 07:12:39;;;;;;;22.10;14.75;;;11.60;1.00;;;;;;4956783;29;20019;-65
2023/03/08 07:15:08;;;;;;;26.00;15.60;;;11.50;1.00;;;;;;4956386;29;20114;-65
2023/03/08 07:17:34;;;;;;;21.60;14.93;;;11.60;1.00;;;;;;4943025;29;20019;-67
2023/03/08 07:20:04;;;;;;;21.08;14.45;;;11.60;1.00;;;;;;4956447;29;20082;-67
2023/03/08 07:22:29;;;;;;;22.48;13.85;;;11.70;1.00;;;;;;4956434;29;20035;-64
2023/03/08 07:24:55;;;;;;;26.77;14.93;;;11.70;1.00;;;;;;4956367;29;20110;-66
2023/03/08 07:27:21;;;;;;;22.63;14.25;;;11.80;1.00;;;;;;4955953;29;20393;-66
2023/03/08 07:29:46;;;;;;;26.70;14.32;;;11.80;1.00;;;;;;4956411;29;20020;-65
2023/03/08 07:32:12;;;;;;;29.55;15.25;;;11.80;1.00;;;;;;4956231;29;20039;-65
2023/03/08 07:34:38;;;;;;;19.23;13.27;;;11.90;1.00;;;;;;4956031;29;20067;-65
2023/03/08 07:37:03;;;;;;;22.98;14.27;;;11.90;1.00;;;;;;4956142;29;20489;-65
2023/03/08 07:39:29;;;;;;;25.67;14.88;;;12.00;1.00;;;;;;4956134;29;20115;-65
2023/03/08 07:41:55;;;;;;;26.02;15.63;;;12.10;1.00;;;;;;4956182;29;20082;-65
2023/03/08 07:44:20;;;;;;;27.30;17.27;;;12.10;1.00;;;;;;4956180;29;20145;-65
2023/03/08 07:46:46;;;;;;;22.67;16.90;;;12.10;1.00;;;;;;4955901;29;20031;-66
2023/03/08 07:49:12;;;;;;;27.02;16.35;;;12.20;1.00;;;;;;4952043;29;20232;-66
2023/03/08 07:51:37;;;;;;;27.58;17.50;;;12.30;1.00;;;;;;4952683;29;20054;-66
2023/03/08 07:54:03;;;;;;;25.40;16.48;;;12.30;1.00;;;;;;4955702;29;20470;-66
2023/03/08 07:56:29;;;;;;;23.65;18.55;;;12.40;1.00;;;;;;4955600;29;20038;-66
2023/03/08 07:58:56;;;;;;;27.45;17.77;;;12.60;1.00;;;;;;4955550;29;20110;-61
2023/03/08 08:01:22;;;;;;;24.70;16.00;;;12.60;1.00;;;;;;4955696;29;20038;-65
2023/03/08 08:03:48;;;;;;;26.90;15.07;;;12.60;1.00;;;;;;4955374;29;20025;-65
2023/03/08 08:06:14;;;;;;;23.38;16.13;;;12.60;1.00;;;;;;4955170;29;20117;-68
2023/03/08 08:08:40;;;;;;;22.60;14.00;;;12.60;1.00;;;;;;4955829;29;20142;-64
2023/03/08 08:11:16;;;;;;;25.77;16.13;;;12.60;1.00;;;;;;4955311;29;20078;-62
2023/03/08 08:13:42;;;;;;;22.98;15.82;;;12.70;1.00;;;;;;4955145;28;20028;-63
2023/03/08 08:16:08;;;;;;;24.02;15.32;;;12.70;1.00;;;;;;4946551;29;20171;-64
2023/03/08 08:18:35;;;;;;;24.50;16.23;;;12.80;1.00;;;;;;4954602;29;20023;-63
2023/03/08 08:21:06;;;;;;;20.48;15.15;;;12.80;1.00;;;;;;4955496;29;20119;-65
2023/03/08 08:23:32;;;;;;;30.50;16.52;;;12.80;1.00;;;;;;4955170;29;20023;-63
2023/03/08 08:25:58;;;;;;;26.92;15.77;;;12.80;1.00;;;;;;4955151;29;20039;-63
2023/03/08 08:28:26;;;;;;;28.90;17.13;;;12.80;1.00;;;;;;4937944;29;20437;-67
2023/03/08 08:31:00;;;;;;;30.00;18.25;;;12.90;1.00;;;;;;4955107;29;20094;-68
2023/03/08 08:33:27;;;;;;;28.52;18.65;;;12.90;1.00;;;;;;4955637;29;20027;-68
2023/03/08 08:35:53;;;;;;;32.17;18.88;;;12.90;1.00;;;;;;4955188;29;20031;-67
2023/03/08 08:38:19;;;;;;;27.40;17.52;;;12.90;1.00;;;;;;4937773;29;20032;-62
2023/03/08 08:40:44;;;;;;;29.40;18.13;;;12.90;1.00;;;;;;4955180;29;20078;-65
2023/03/08 08:43:10;;;;;;;26.17;17.73;;;12.90;1.00;;;;;;4955044;29;20496;-62
2023/03/08 08:49:05;;;;;;;26.08;17.08;;;13.00;1.00;;;;;;4947864;29;20038;-64
2023/03/08 08:51:31;;;;;;;25.05;17.27;;;13.10;1.00;;;;;;4955018;29;20039;-65
2023/03/08 08:53:56;;;;;;;30.73;17.83;;;13.10;1.00;;;;;;4955383;29;20062;-62
2023/03/08 08:56:25;;;;;;;35.30;20.42;;;13.20;1.00;;;;;;4954699;29;20055;-66
2023/03/08 08:58:51;;;;;;;29.25;19.15;;;13.20;1.00;;;;;;4954727;29;20037;-68
2023/03/08 09:01:23;;;;;;;28.17;18.75;;;13.30;1.00;;;;;;4954622;29;20485;-65
2023/03/08 09:03:49;;;;;;;28.52;17.67;;;13.30;1.00;;;;;;4954986;29;20035;-65
2023/03/08 09:06:22;;;;;;;25.80;18.02;;;13.30;1.00;;;;;;4954455;29;20043;-64
2023/03/08 09:08:49;;;;;;;29.88;18.73;;;13.20;1.00;;;;;;4954586;29;20485;-65
2023/03/08 09:11:16;;;;;;;34.05;19.67;;;13.30;1.00;;;;;;4954615;29;20504;-64
2023/03/08 09:13:41;;;;;;;27.58;18.70;;;13.30;1.00;;;;;;4954816;29;20097;-65
2023/03/08 09:16:33;;;;;;;26.70;18.25;;;13.30;1.00;;;;;;4954821;29;20473;-65
2023/03/08 09:19:01;;;;;;;28.08;20.15;;;13.30;1.00;;;;;;4954597;29;20027;-64
2023/03/08 09:21:28;;;;;;;28.98;19.77;;;13.40;1.00;;;;;;4954529;29;20027;-65
2023/03/08 09:23:57;;;;;;;27.30;18.08;;;13.30;1.00;;;;;;4954457;28;20031;-65
2023/03/08 09:26:23;;;;;;;26.83;18.25;;;13.40;1.00;;;;;;4939327;29;20032;-64
2023/03/08 09:28:49;;;;;;;28.55;18.13;;;13.40;1.00;;;;;;4958147;29;20118;-64
2023/03/08 09:31:16;;;;;;;28.77;19.20;;;13.50;1.00;;;;;;4958477;29;20043;-64
2023/03/08 09:33:45;;;;;;;28.80;19.58;;;13.60;1.00;;;;;;4958249;29;20054;-66
2023/03/08 09:36:11;;;;;;;28.50;20.35;;;13.70;1.00;;;;;;4940284;29;20035;-66
2023/03/08 09:38:37;;;;;;;29.38;19.27;;;13.80;1.00;;;;;;4956613;29;20030;-60
2023/03/08 09:41:25;;;;;;;26.77;18.50;;;13.90;1.00;;;;;;4939825;29;20035;-59
2023/03/08 09:44:26;;;;;;;31.83;18.83;;;14.00;1.00;;;;;;4958380;29;20054;-59
2023/03/08 09:47:00;;;;;;;23.38;16.25;;;14.20;1.00;;;;;;4943313;29;20035;-66
2023/03/08 09:49:32;;;;;;;25.27;16.02;;;14.20;1.00;;;;;;4957945;29;20404;-60
2023/03/08 09:52:32;;;;;;;24.52;16.90;;;14.30;1.00;;;;;;4940698;29;20035;-60
2023/03/08 09:54:59;;;;;;;22.92;16.02;;;14.40;1.00;;;;;;4945043;29;20034;-49
2023/03/08 09:57:52;;;;;;;42.58;20.45;;;14.50;1.00;;;;;;4958106;29;20123;-51
2023/03/08 10:00:27;;;;;;;27.98;17.45;;;14.70;1.00;;;;;;4947039;29;20027;-68
2023/03/08 10:03:08;;;;;;;25.30;17.40;;;14.60;1.00;;;;;;4956071;29;20042;-68
2023/03/08 10:05:54;;;;;;;23.70;15.55;;;14.70;1.00;;;;;;4956029;29;20057;-69
2023/03/08 10:08:25;;;;;;;22.98;15.52;;;14.70;1.00;;;;;;4952036;29;20051;-68
2023/03/08 10:11:01;;;;;;;30.45;18.38;;;14.70;1.00;;;;;;4945171;29;20617;-67
2023/03/08 10:13:32;;;;;;;29.67;17.58;;;14.80;1.00;;;;;;4957257;29;20042;-68
2023/03/08 10:16:12;;;;;;;27.55;18.67;;;14.80;1.00;;;;;;4957594;29;20031;-67
2023/03/08 10:18:44;;;;;;;24.95;16.77;;;14.90;1.00;;;;;;4955849;29;20067;-67
2023/03/08 10:21:16;;;;;;;21.98;15.43;;;14.90;1.00;;;;;;4954444;28;20043;-68
2023/03/08 10:23:44;;;;;;;23.13;16.70;;;14.80;1.00;;;;;;4955170;29;20090;-68
2023/03/08 10:26:14;;;;;;;22.05;16.10;;;14.70;1.00;;;;;;4955282;29;20078;-68
2023/03/08 10:28:40;;;;;;;22.38;14.73;;;14.60;1.00;;;;;;4959255;28;20031;-67
2023/03/08 10:31:17;;;;;;;20.17;13.32;;;14.60;1.00;;;;;;4955528;29;20452;-67
2023/03/08 10:33:44;;;;;;;22.23;14.10;;;14.80;1.00;;;;;;4955171;29;20031;-68
2023/03/08 10:36:21;;;;;;;25.05;14.25;;;15.00;1.00;;;;;;4951632;28;20027;-68
2023/03/08 10:39:04;;;;;;;18.60;14.82;;;15.10;1.00;;;;;;4939595;29;20034;-68
2023/03/08 10:45:01;;;;;;;27.30;16.73;;;15.30;1.00;;;;;;4953935;29;20046;-68
2023/03/08 10:47:35;;;;;;;25.85;17.15;;;15.20;1.00;;;;;;4955035;29;20370;-68
2023/03/08 10:50:03;;;;;;;23.92;16.33;;;15.20;1.00;;;;;;4959059;28;20059;-67
2023/03/08 10:52:29;;;;;;;25.52;16.33;;;15.20;1.00;;;;;;4954619;29;20374;-67
2023/03/08 10:55:01;;;;;;;27.92;16.98;;;15.30;1.00;;;;;;4954578;29;20043;-68
2023/03/08 10:57:52;;;;;;;29.15;16.95;;;15.40;1.00;;;;;;4955407;29;20081;-68
2023/03/08 11:00:18;;;;;;;22.80;15.35;;;15.40;1.00;;;;;;4955765;28;20020;-68
2023/03/08 11:02:45;;;;;;;26.65;16.80;;;15.40;1.00;;;;;;4954421;29;20031;-68
2023/03/08 11:06:03;;;;;;;23.52;15.93;;;15.50;1.00;;;;;;4952469;29;20039;-68
2023/03/08 11:08:38;;;;;;;25.63;14.52;;;15.70;1.00;;;;;;4894865;29;20550;-68
2023/03/08 11:11:10;;;;;;;19.20;14.13;;;16.00;1.00;;;;;;4904241;29;20501;-68
2023/03/08 11:13:45;;;;;;;22.63;14.32;;;15.90;1.00;;;;;;4954097;29;20051;-67
2023/03/08 11:16:24;;;;;;;20.35;13.45;;;16.00;1.00;;;;;;4952527;29;20027;-68
2023/03/08 11:19:21;;;;;;;26.23;15.25;;;16.00;1.00;;;;;;4956005;28;20028;-68
2023/03/08 11:22:04;;;;;;;22.92;14.20;;;16.10;1.00;;;;;;4952261;29;20038;-68
2023/03/08 11:25:02;;;;;;;21.17;13.70;;;16.30;1.00;;;;;;4947807;29;20023;-68
2023/03/08 11:27:52;;;;;;;17.23;13.75;;;16.30;1.00;;;;;;4937909;29;20035;-66
2023/03/08 11:30:29;;;;;;;23.45;15.93;;;16.40;1.00;;;;;;4951611;29;20633;-67
2023/03/08 11:33:12;;;;;;;25.45;16.55;;;16.30;1.00;;;;;;4952911;28;20489;-67
2023/03/08 11:36:12;;;;;;;25.73;17.08;;;16.50;1.00;;;;;;4951263;29;20110;-63
2023/03/08 11:38:38;;;;;;;22.40;17.58;;;16.60;1.00;;;;;;4951094;28;20115;-64
2023/03/08 11:41:06;;;;;;;23.27;16.35;;;16.80;1.00;;;;;;4953287;28;20118;-64
2023/03/08 11:43:57;;;;;;;22.67;15.50;;;16.90;1.00;;;;;;4955515;29;20024;-64
2023/03/08 11:46:57;;;;;;;23.08;15.77;;;17.00;1.00;;;;;;4937352;29;20110;-64
2023/03/08 11:49:41;;;;;;;20.92;14.35;;;17.00;1.00;;;;;;4952057;28;20054;-63
2023/03/08 11:52:13;;;;;;;16.10;13.27;;;16.90;1.00;;;;;;4955302;29;20432;-63
2023/03/08 11:55:00;;;;;;;18.35;11.68;;;17.00;1.00;;;;;;4955394;29;20057;-63
2023/03/08 11:57:33;;;;;;;18.80;10.90;;;16.80;1.00;;;;;;4954721;29;20038;-63
2023/03/08 12:00:11;;;;;;;15.93;11.27;;;16.80;1.00;;;;;;4951156;29;20038;-63
2023/03/08 12:02:43;;;;;;;18.92;12.32;;;16.90;1.00;;;;;;4952738;29;20051;-63
2023/03/08 12:05:22;;;;;;;18.35;11.70;;;16.80;1.00;;;;;;4952450;29;20047;-63
2023/03/08 12:08:11;;;;;;;14.73;10.32;;;16.80;1.00;;;;;;4952669;29;20035;-64
2023/03/08 12:10:36;;;;;;;13.48;10.32;;;16.70;1.00;;;;;;4951961;29;20098;-64
2023/03/08 12:13:34;;;;;;;14.73;9.23;;;17.00;1.00;;;;;;4952947;29;20745;-65
2023/03/08 12:16:22;;;;;;;13.60;10.25;;;17.40;1.00;;;;;;4946964;29;20114;-65
2023/03/08 12:19:14;;;;;;;17.60;10.25;;;17.50;1.00;;;;;;4955265;29;20027;-63
2023/03/08 12:21:49;;;;;;;16.02;10.20;;;17.80;1.00;;;;;;4948481;29;20071;-63
2023/03/08 12:24:35;;;;;;;14.90;9.35;;;17.80;1.00;;;;;;4954500;29;20039;-63
2023/03/08 12:27:12;;;;;;;15.93;9.77;;;17.90;1.00;;;;;;4954661;29;20039;-64
2023/03/08 12:30:03;;;;;;;13.93;9.68;;;17.90;1.00;;;;;;4954848;29;20035;-64
2023/03/08 12:32:29;;;;;;;15.73;9.30;;;17.80;1.00;;;;;;4944686;29;20401;-64
2023/03/08 12:35:05;;;;;;;14.38;9.70;;;17.70;1.00;;;;;;4954028;29;20533;-64
2023/03/08 12:37:31;;;;;;;18.05;10.25;;;17.50;1.00;;;;;;4953603;29;20026;-64
2023/03/08 12:40:46;;;;;;;14.13;9.98;;;17.20;1.00;;;;;;4954983;29;20031;-64
2023/03/08 12:43:26;;;;;;;21.08;11.77;;;17.00;1.00;;;;;;4930678;29;20399;-64
2023/03/08 12:46:07;;;;;;;13.02;9.77;;;17.10;1.00;;;;;;4932382;29;20043;-64
2023/03/08 12:48:43;;;;;;;18.85;10.95;;;17.20;1.00;;;;;;4945966;29;20031;-64
2023/03/08 12:51:11;;;;;;;13.88;9.80;;;17.00;1.00;;;;;;4930303;29;20039;-65
2023/03/08 12:53:42;;;;;;;14.02;10.68;;;17.30;1.00;;;;;;4949323;29;20038;-64
2023/03/08 12:56:08;;;;;;;14.77;10.40;;;17.30;1.00;;;;;;4951130;29;20027;-65
2023/03/08 12:58:37;;;;;;;15.00;10.27;;;17.40;1.00;;;;;;4927934;29;20401;-64
2023/03/08 13:01:21;;;;;;;16.25;11.07;;;17.50;1.00;;;;;;4952418;29;20401;-65
2023/03/08 13:03:47;;;;;;;13.02;9.98;;;17.50;1.00;;;;;;4954477;29;20102;-66
2023/03/08 13:06:26;;;;;;;16.05;9.52;;;17.10;1.00;;;;;;4935529;29;20549;-64
2023/03/08 13:08:57;;;;;;;11.73;8.38;;;17.20;1.00;;;;;;4948896;29;20091;-64
2023/03/08 13:11:25;;;;;;;12.98;8.18;;;17.00;1.00;;;;;;4951702;29;20074;-64
2023/03/08 13:13:57;;;;;;;13.40;7.78;;;16.90;1.00;;;;;;4952378;29;20027;-64
2023/03/08 13:16:30;;;;;;;16.20;7.45;;;17.10;1.00;;;;;;4951216;29;20035;-64
2023/03/08 13:19:14;;;;;;;10.47;6.70;;;17.20;1.00;;;;;;4935278;29;20031;-64